createdAt,value
2022-11-18T00:01:23.320Z,9.43
2022-11-18T00:03:52.300Z,9.49
2022-11-18T00:06:24.358Z,9.48
2022-11-18T00:08:55.492Z,9.48
2022-11-18T00:11:44.532Z,9.54
2022-11-18T00:14:20.736Z,9.59
2022-11-18T00:17:02.926Z,9.56
2022-11-18T00:19:39.749Z,9.50
2022-11-18T00:22:12.499Z,9.49
2022-11-18T00:24:39.796Z,9.51
2022-11-18T00:27:06.990Z,9.49
2022-11-18T00:29:34.139Z,9.46
2022-11-18T00:32:01.762Z,9.49
2022-11-18T00:34:29.024Z,9.48
2022-11-18T00:36:56.265Z,9.54
2022-11-18T00:39:23.611Z,9.55
2022-11-18T00:42:09.856Z,9.58
2022-11-18T00:44:37.153Z,9.60
2022-11-18T00:47:05.143Z,9.61
2022-11-18T00:49:32.493Z,9.58
2022-11-18T00:51:59.828Z,9.59
2022-11-18T00:54:27.015Z,9.62
2022-11-18T00:56:54.320Z,9.64
2022-11-18T00:59:21.781Z,9.66
2022-11-18T01:01:49.331Z,9.67
2022-11-18T01:04:17.205Z,9.67
2022-11-18T01:06:44.513Z,9.65
2022-11-18T01:09:11.730Z,9.63
2022-11-18T01:11:57.685Z,9.62
2022-11-18T01:14:26.223Z,9.65
2022-11-18T01:16:57.838Z,9.66
2022-11-18T01:19:26.091Z,9.66
2022-11-18T01:21:53.884Z,9.68
2022-11-18T01:24:21.260Z,9.67
2022-11-18T01:26:48.657Z,9.65
2022-11-18T01:29:17.423Z,9.64
2022-11-18T01:32:02.074Z,9.65
2022-11-18T01:34:32.280Z,9.65
2022-11-18T01:36:59.545Z,9.67
2022-11-18T01:39:26.783Z,9.70
2022-11-18T01:41:54.045Z,9.70
2022-11-18T01:44:59.631Z,9.69
2022-11-18T01:47:39.029Z,9.67
2022-11-18T01:50:07.218Z,9.68
2022-11-18T01:52:35.828Z,9.68
2022-11-18T01:55:18.774Z,9.71
2022-11-18T01:57:49.922Z,9.72
2022-11-18T02:00:17.798Z,9.73
2022-11-18T02:02:45.985Z,9.72
2022-11-18T02:05:14.613Z,9.66
2022-11-18T02:07:43.542Z,9.61
2022-11-18T02:10:25.159Z,9.63
2022-11-18T02:12:54.850Z,9.64
2022-11-18T02:15:55.582Z,9.62
2022-11-18T02:18:49.461Z,9.63
2022-11-18T02:21:55.680Z,9.63
2022-11-18T02:25:16.281Z,9.65
2022-11-18T02:28:16.613Z,9.63
2022-11-18T02:31:20.684Z,9.62
2022-11-18T02:34:08.013Z,9.63
2022-11-18T02:37:17.408Z,9.64
2022-11-18T02:40:26.417Z,9.65
2022-11-18T02:43:17.244Z,9.67
2022-11-18T02:45:50.149Z,9.71
2022-11-18T02:48:19.274Z,9.72
2022-11-18T02:50:50.411Z,9.74
2022-11-18T02:53:21.725Z,9.76
2022-11-18T02:55:50.207Z,9.74
2022-11-18T02:58:20.942Z,9.74
2022-11-18T03:01:01.726Z,9.72
2022-11-18T03:03:36.255Z,9.69
2022-11-18T03:06:24.070Z,9.69
2022-11-18T03:09:05.194Z,9.68
2022-11-18T03:11:50.732Z,9.66
2022-11-18T03:14:34.319Z,9.65
2022-11-18T03:17:14.045Z,9.66
2022-11-18T03:19:59.453Z,9.64
2022-11-18T03:23:09.701Z,9.66
2022-11-18T03:26:05.984Z,9.66
2022-11-18T03:28:40.703Z,9.67
2022-11-18T03:32:03.838Z,9.67
2022-11-18T03:34:45.385Z,9.68
2022-11-18T03:37:16.633Z,9.68
2022-11-18T03:39:53.481Z,9.70
2022-11-18T03:42:43.232Z,9.72
2022-11-18T03:45:47.029Z,9.71
2022-11-18T03:48:32.790Z,9.72
2022-11-18T03:51:10.843Z,9.72
2022-11-18T03:53:45.606Z,9.72
2022-11-18T03:56:24.121Z,9.72
2022-11-18T03:59:21.461Z,9.73
2022-11-18T04:01:58.071Z,9.73
2022-11-18T04:04:26.890Z,9.73
2022-11-18T04:07:17.317Z,9.72
2022-11-18T04:10:04.376Z,9.72
2022-11-18T04:12:38.294Z,9.72
2022-11-18T04:15:06.518Z,9.72
2022-11-18T04:17:33.820Z,9.73
2022-11-18T04:20:01.185Z,9.71
2022-11-18T04:22:28.446Z,9.73
2022-11-18T04:24:55.710Z,9.71
2022-11-18T04:27:22.902Z,9.72
2022-11-18T04:29:50.201Z,9.73
2022-11-18T04:32:17.416Z,9.71
2022-11-18T04:34:44.663Z,9.71
2022-11-18T04:37:11.882Z,9.71
2022-11-18T04:39:39.164Z,9.71
2022-11-18T04:42:06.575Z,9.72
2022-11-18T04:44:34.897Z,9.71
2022-11-18T04:47:05.497Z,9.73
2022-11-18T04:49:35.248Z,9.71
2022-11-18T04:52:03.365Z,9.70
2022-11-18T04:54:30.793Z,9.71
2022-11-18T04:56:58.246Z,9.69
2022-11-18T04:59:29.291Z,9.69
2022-11-18T05:01:59.321Z,9.68
2022-11-18T05:04:31.554Z,9.69
2022-11-18T05:07:01.936Z,9.65
2022-11-18T05:09:31.985Z,9.60
2022-11-18T05:12:19.704Z,9.55
2022-11-18T05:14:50.394Z,9.58
2022-11-18T05:17:19.134Z,9.54
2022-11-18T05:19:46.279Z,9.51
2022-11-18T05:22:15.562Z,9.41
2022-11-18T05:24:42.784Z,9.31
2022-11-18T05:27:10.042Z,9.12
2022-11-18T05:29:37.222Z,8.98
2022-11-18T05:32:05.296Z,8.83
2022-11-18T05:34:32.495Z,8.78
2022-11-18T05:37:00.647Z,8.64
2022-11-18T05:39:27.924Z,8.57
2022-11-18T05:42:13.517Z,8.48
2022-11-18T05:44:40.666Z,8.40
2022-11-18T05:47:08.041Z,8.36
2022-11-18T05:49:35.406Z,8.34
2022-11-18T05:52:02.821Z,8.34
2022-11-18T05:54:30.281Z,8.28
2022-11-18T05:56:57.590Z,8.16
2022-11-18T05:59:24.764Z,8.18
2022-11-18T06:02:08.692Z,8.23
2022-11-18T06:04:47.066Z,8.27
2022-11-18T06:07:53.455Z,8.25
2022-11-18T06:10:32.234Z,8.17
2022-11-18T06:13:05.593Z,8.14
2022-11-18T06:15:41.009Z,8.28
2022-11-18T06:18:19.962Z,8.45
2022-11-18T06:20:47.775Z,8.57
2022-11-18T06:23:15.461Z,8.67
2022-11-18T06:25:43.252Z,8.78
2022-11-18T06:28:14.285Z,8.89
2022-11-18T06:30:43.162Z,8.98
2022-11-18T06:33:10.377Z,9.01
2022-11-18T06:35:37.623Z,9.06
2022-11-18T06:38:04.946Z,9.09
2022-11-18T06:40:34.968Z,9.14
2022-11-18T06:43:29.233Z,9.19
2022-11-18T06:46:23.976Z,9.31
2022-11-18T06:48:51.787Z,9.39
2022-11-18T06:51:19.694Z,9.45
2022-11-18T06:53:47.048Z,9.47
2022-11-18T06:56:18.234Z,9.55
2022-11-18T06:58:45.754Z,9.57
2022-11-18T07:01:29.627Z,9.61
2022-11-18T07:04:00.017Z,9.66
2022-11-18T07:06:34.111Z,9.66
2022-11-18T07:09:06.012Z,9.69
2022-11-18T07:11:34.275Z,9.65
2022-11-18T07:14:01.584Z,9.66
2022-11-18T07:16:29.484Z,9.71
2022-11-18T07:18:57.175Z,9.73
2022-11-18T07:21:28.504Z,9.73
2022-11-18T07:23:56.998Z,9.72
2022-11-18T07:26:24.423Z,9.66
2022-11-18T07:28:51.979Z,9.66
2022-11-18T07:31:21.122Z,9.66
2022-11-18T07:33:49.721Z,9.64
2022-11-18T07:36:22.086Z,9.64
2022-11-18T07:38:50.081Z,9.67
2022-11-18T07:41:24.028Z,9.72
2022-11-18T07:43:59.033Z,9.77
2022-11-18T07:46:34.409Z,9.83
2022-11-18T07:49:06.444Z,9.89
2022-11-18T07:51:38.383Z,9.89
2022-11-18T07:54:16.993Z,9.97
2022-11-18T07:56:44.641Z,9.99
2022-11-18T07:59:12.089Z,10.02
2022-11-18T08:01:39.423Z,10.04
2022-11-18T08:04:11.677Z,10.08
2022-11-18T08:06:39.920Z,10.12
2022-11-18T08:09:08.592Z,10.16
2022-11-18T08:11:36.628Z,10.26
2022-11-18T08:14:04.274Z,10.39
2022-11-18T08:16:31.545Z,10.52
2022-11-18T08:19:00.941Z,10.48
2022-11-18T08:21:28.448Z,10.49
2022-11-18T08:23:58.337Z,10.44
2022-11-18T08:26:27.364Z,10.48
2022-11-18T08:28:55.147Z,10.48
2022-11-18T08:31:30.409Z,10.48
2022-11-18T08:34:03.006Z,10.34
2022-11-18T08:36:35.808Z,10.28
2022-11-18T08:39:07.954Z,10.26
2022-11-18T08:41:42.797Z,10.20
2022-11-18T08:44:16.678Z,10.20
2022-11-18T08:46:45.744Z,10.21
2022-11-18T08:49:12.989Z,10.16
2022-11-18T08:51:40.140Z,10.14
2022-11-18T08:54:07.344Z,10.12
2022-11-18T08:56:34.574Z,10.19
2022-11-18T08:59:01.900Z,10.27
2022-11-18T09:01:29.205Z,10.29
2022-11-18T09:03:57.681Z,10.24
2022-11-18T09:06:25.329Z,10.24
2022-11-18T09:08:54.136Z,10.19
2022-11-18T09:11:27.498Z,10.07
2022-11-18T09:16:45.505Z,10.01
2022-11-18T09:19:45.030Z,9.97
2022-11-18T09:22:00.186Z,9.97
2022-11-18T09:24:27.419Z,9.97
2022-11-18T09:26:54.673Z,9.98
2022-11-18T09:29:25.858Z,9.99
2022-11-18T09:31:54.734Z,10.03
2022-11-18T09:34:23.402Z,10.07
2022-11-18T09:36:51.253Z,10.07
2022-11-18T09:39:18.848Z,10.03
2022-11-18T09:42:30.932Z,10.01
2022-11-18T09:45:38.876Z,10.02
2022-11-18T09:49:03.523Z,10.07
2022-11-18T09:51:39.252Z,10.08
2022-11-18T09:54:12.493Z,10.13
2022-11-18T09:56:41.615Z,10.23
2022-11-18T09:59:14.215Z,10.47
2022-11-18T10:01:42.750Z,10.71
2022-11-18T10:04:24.123Z,11.04
2022-11-18T10:06:51.366Z,11.21
2022-11-18T10:09:41.353Z,11.30
2022-11-18T10:12:41.993Z,11.50
2022-11-18T10:15:44.410Z,11.68
2022-11-18T10:19:01.157Z,11.79
2022-11-18T10:22:18.256Z,11.83
2022-11-18T10:24:55.922Z,11.83
2022-11-18T10:27:35.453Z,11.93
2022-11-18T10:30:02.954Z,12.14
2022-11-18T10:32:30.175Z,12.17
2022-11-18T10:34:59.456Z,12.10
2022-11-18T10:38:05.797Z,12.27
2022-11-18T10:40:28.394Z,12.29
2022-11-18T10:42:56.071Z,12.44
2022-11-18T10:45:23.056Z,12.28
2022-11-18T10:48:28.593Z,12.41
2022-11-18T10:50:56.228Z,12.43
2022-11-18T10:53:37.031Z,12.45
2022-11-18T10:56:11.937Z,12.50
2022-11-18T10:58:50.276Z,12.51
2022-11-18T11:01:26.669Z,12.53
2022-11-18T11:04:22.506Z,12.70
2022-11-18T11:06:50.011Z,12.96
2022-11-18T11:09:30.754Z,12.84
2022-11-18T11:12:13.850Z,12.77
2022-11-18T11:14:54.534Z,12.81
2022-11-18T11:17:38.794Z,12.85
2022-11-18T11:20:26.655Z,12.92
2022-11-18T11:22:55.735Z,12.96
2022-11-18T11:29:12.909Z,13.11
2022-11-18T11:31:59.944Z,13.10
2022-11-18T11:35:27.313Z,13.10
2022-11-18T11:38:23.014Z,13.07
2022-11-18T11:41:23.308Z,13.26
2022-11-18T11:44:18.399Z,13.14
2022-11-18T11:47:49.964Z,13.34
2022-11-18T11:51:03.262Z,13.30
2022-11-18T11:54:38.155Z,13.43
2022-11-18T11:57:39.440Z,13.52
2022-11-18T12:00:14.412Z,13.38
2022-11-18T12:03:01.591Z,13.45
2022-11-18T12:05:39.429Z,13.62
2022-11-18T12:08:31.172Z,13.58
2022-11-18T12:11:31.770Z,13.72
2022-11-18T12:14:28.423Z,13.88
2022-11-18T12:17:13.263Z,13.93
2022-11-18T12:19:40.558Z,13.85
2022-11-18T12:22:07.803Z,13.90
2022-11-18T12:24:42.407Z,13.94
2022-11-18T12:27:39.828Z,13.90
2022-11-18T12:30:18.865Z,14.04
2022-11-18T12:32:46.873Z,14.15
2022-11-18T12:35:14.013Z,14.11
2022-11-18T12:37:53.198Z,14.13
2022-11-18T12:40:50.639Z,14.07
2022-11-18T12:43:46.000Z,14.10
2022-11-18T12:46:40.121Z,14.10
2022-11-18T12:49:23.268Z,14.16
2022-11-18T12:51:52.568Z,14.14
2022-11-18T12:54:45.329Z,14.15
2022-11-18T12:57:31.077Z,14.26
2022-11-18T13:00:17.711Z,14.34
2022-11-18T13:02:57.174Z,14.39
2022-11-18T13:05:31.080Z,14.38
2022-11-18T13:08:14.182Z,14.35
2022-11-18T13:11:17.581Z,14.40
2022-11-18T13:13:46.219Z,14.55
2022-11-18T13:16:43.234Z,14.63
2022-11-18T13:19:21.551Z,14.60
2022-11-18T13:22:15.222Z,14.51
2022-11-18T13:24:53.024Z,14.52
2022-11-18T13:28:05.662Z,14.64
2022-11-18T13:30:36.355Z,14.58
2022-11-18T13:33:03.739Z,14.53
2022-11-18T13:35:30.963Z,14.62
2022-11-18T13:38:02.390Z,14.65
2022-11-18T13:41:04.151Z,14.66
2022-11-18T13:43:33.503Z,14.65
2022-11-18T13:46:14.294Z,14.57
2022-11-18T13:48:54.854Z,14.61
2022-11-18T13:51:23.381Z,14.63
2022-11-18T13:53:50.852Z,14.67
2022-11-18T13:56:34.934Z,14.71
2022-11-18T13:59:16.743Z,14.72
2022-11-18T14:01:47.304Z,14.76
2022-11-18T14:04:31.679Z,14.75
2022-11-18T14:07:32.642Z,14.76
2022-11-18T14:10:08.500Z,14.78
2022-11-18T14:12:36.915Z,15.06
2022-11-18T14:15:37.897Z,15.13
2022-11-18T14:18:32.901Z,15.16
2022-11-18T14:21:02.835Z,15.08
2022-11-18T14:23:36.492Z,15.02
2022-11-18T14:26:06.674Z,14.94
2022-11-18T14:28:38.202Z,14.87
2022-11-18T14:31:25.660Z,14.77
2022-11-18T14:34:24.136Z,14.77
2022-11-18T14:36:53.547Z,14.66
2022-11-18T14:39:27.489Z,14.59
2022-11-18T14:41:59.820Z,14.55
2022-11-18T14:44:28.670Z,14.48
2022-11-18T14:47:27.695Z,14.43
2022-11-18T14:49:54.962Z,14.28
2022-11-18T14:52:22.181Z,14.17
2022-11-18T14:54:49.391Z,14.21
2022-11-18T14:57:18.902Z,14.13
2022-11-18T14:59:46.208Z,14.08
2022-11-18T15:02:17.380Z,14.03
2022-11-18T15:04:44.977Z,14.07
2022-11-18T15:07:23.125Z,14.04
2022-11-18T15:09:51.231Z,13.97
2022-11-18T15:12:18.420Z,13.94
2022-11-18T15:14:45.638Z,13.74
2022-11-18T15:17:13.643Z,13.67
2022-11-18T15:19:41.575Z,13.44
2022-11-18T15:22:09.487Z,13.33
2022-11-18T15:24:36.740Z,13.21
2022-11-18T15:27:05.256Z,13.01
2022-11-18T15:29:32.622Z,12.93
2022-11-18T15:32:00.073Z,12.99
2022-11-18T15:34:27.343Z,12.89
2022-11-18T15:36:54.476Z,12.88
2022-11-18T15:39:21.699Z,12.98
2022-11-18T15:41:49.188Z,13.05
2022-11-18T15:44:16.935Z,12.92
2022-11-18T15:46:48.119Z,12.71
2022-11-18T15:49:17.466Z,12.59
2022-11-18T15:51:44.766Z,12.35
2022-11-18T15:54:11.981Z,12.14
2022-11-18T15:56:39.866Z,12.08
2022-11-18T15:59:13.756Z,11.88
2022-11-18T16:01:49.221Z,12.13
2022-11-18T16:04:19.284Z,12.07
2022-11-18T16:06:47.686Z,11.95
2022-11-18T16:09:17.905Z,11.89
2022-11-18T16:12:04.271Z,11.56
2022-11-18T16:14:31.348Z,11.35
2022-11-18T16:16:58.645Z,11.52
2022-11-18T16:19:27.184Z,11.69
2022-11-18T16:21:56.991Z,11.93
2022-11-18T16:24:29.670Z,11.95
2022-11-18T16:26:57.761Z,11.83
2022-11-18T16:29:25.346Z,11.74
2022-11-18T16:31:54.151Z,11.71
2022-11-18T16:34:27.966Z,11.76
2022-11-18T16:37:01.111Z,11.67
2022-11-18T16:39:29.345Z,11.59
2022-11-18T16:42:08.361Z,11.51
2022-11-18T16:44:37.524Z,11.46
2022-11-18T16:47:13.934Z,11.27
2022-11-18T16:49:43.032Z,11.15
2022-11-18T16:52:10.471Z,11.15
2022-11-18T16:54:44.293Z,11.09
2022-11-18T16:57:13.151Z,11.01
2022-11-18T16:59:40.505Z,10.92
2022-11-18T17:02:11.506Z,10.91
2022-11-18T17:04:38.766Z,10.98
2022-11-18T17:07:06.583Z,10.91
2022-11-18T17:09:33.925Z,10.93
2022-11-18T17:12:03.149Z,11.04
2022-11-18T17:14:30.887Z,10.93
2022-11-18T17:16:58.742Z,10.98
2022-11-18T17:19:26.556Z,11.10
2022-11-18T17:21:54.091Z,11.11
2022-11-18T17:24:24.302Z,10.99
2022-11-18T17:26:52.774Z,10.82
2022-11-18T17:29:20.843Z,10.80
2022-11-18T17:31:48.336Z,10.72
2022-11-18T17:34:16.479Z,10.50
2022-11-18T17:36:44.130Z,10.40
2022-11-18T17:39:13.270Z,10.11
2022-11-18T17:41:59.327Z,9.91
2022-11-18T17:44:29.127Z,10.21
2022-11-18T17:46:56.653Z,10.41
2022-11-18T17:49:23.971Z,10.48
2022-11-18T17:51:51.673Z,10.51
2022-11-18T17:54:20.718Z,10.32
2022-11-18T17:56:49.823Z,10.14
2022-11-18T17:59:17.607Z,10.15
2022-11-18T18:01:46.154Z,10.19
2022-11-18T18:04:14.592Z,10.04
2022-11-18T18:06:41.804Z,9.78
2022-11-18T18:09:08.973Z,9.48
2022-11-18T18:11:36.247Z,9.37
2022-11-18T18:14:12.786Z,9.24
2022-11-18T18:16:50.888Z,9.18
2022-11-18T18:19:21.874Z,9.23
2022-11-18T18:21:49.284Z,9.13
2022-11-18T18:24:19.506Z,8.90
2022-11-18T18:26:47.404Z,8.78
2022-11-18T18:29:14.672Z,8.77
2022-11-18T18:31:41.945Z,8.82
2022-11-18T18:34:09.258Z,8.76
2022-11-18T18:36:36.522Z,8.84
2022-11-18T18:39:04.429Z,8.68
2022-11-18T18:41:32.493Z,8.73
2022-11-18T18:44:00.635Z,8.65
2022-11-18T18:46:29.396Z,8.70
2022-11-18T18:49:20.371Z,8.74
2022-11-18T18:51:49.399Z,8.71
2022-11-18T18:54:20.417Z,8.70
2022-11-18T18:56:47.952Z,8.74
2022-11-18T18:59:15.147Z,8.90
2022-11-18T19:01:42.772Z,9.03
2022-11-18T19:04:13.498Z,9.15
2022-11-18T19:06:53.638Z,8.99
2022-11-18T19:09:25.618Z,8.82
2022-11-18T19:12:11.978Z,8.64
2022-11-18T19:14:39.676Z,8.45
2022-11-18T19:17:11.251Z,8.35
2022-11-18T19:20:00.092Z,8.30
2022-11-18T19:22:31.816Z,8.27
2022-11-18T19:25:00.565Z,8.21
2022-11-18T19:27:28.768Z,8.09
2022-11-18T19:29:56.121Z,7.99
2022-11-18T19:32:23.472Z,7.92
2022-11-18T19:34:50.689Z,7.84
2022-11-18T19:37:17.889Z,7.82
2022-11-18T19:39:45.193Z,7.76
2022-11-18T19:42:12.486Z,7.79
2022-11-18T19:44:39.956Z,7.80
2022-11-18T19:47:07.209Z,7.86
2022-11-18T19:49:34.422Z,7.90
2022-11-18T19:52:02.463Z,7.88
2022-11-18T19:54:29.656Z,7.82
2022-11-18T19:56:57.389Z,7.84
2022-11-18T19:59:24.554Z,7.91
2022-11-18T20:01:51.964Z,7.87
2022-11-18T20:04:19.209Z,7.83
2022-11-18T20:06:46.636Z,7.77
2022-11-18T20:09:14.142Z,7.68
2022-11-18T20:11:43.510Z,7.57
2022-11-18T20:14:12.452Z,7.54
2022-11-18T20:16:40.533Z,7.52
2022-11-18T20:19:10.773Z,7.44
2022-11-18T20:21:39.276Z,7.35
2022-11-18T20:24:08.269Z,7.49
2022-11-18T20:26:38.715Z,7.67
2022-11-18T20:29:08.089Z,7.58
2022-11-18T20:31:37.189Z,7.51
2022-11-18T20:34:06.155Z,7.45
2022-11-18T20:36:36.415Z,7.36
2022-11-18T20:39:14.915Z,7.40
2022-11-18T20:41:43.269Z,7.46
2022-11-18T20:44:10.436Z,7.44
2022-11-18T20:46:37.657Z,7.44
2022-11-18T20:49:04.792Z,7.46
2022-11-18T20:51:32.423Z,7.42
2022-11-18T20:54:01.097Z,7.37
2022-11-18T20:56:28.457Z,7.26
2022-11-18T20:58:58.539Z,7.21
2022-11-18T21:01:29.492Z,7.15
2022-11-18T21:04:00.440Z,7.07
2022-11-18T21:06:31.077Z,7.09
2022-11-18T21:09:05.461Z,7.18
2022-11-18T21:11:36.940Z,7.09
2022-11-18T21:14:24.903Z,7.09
2022-11-18T21:17:01.770Z,7.08
2022-11-18T21:19:29.701Z,7.02
2022-11-18T21:21:57.351Z,7.05
2022-11-18T21:24:29.535Z,7.02
2022-11-18T21:26:58.040Z,7.19
2022-11-18T21:29:29.867Z,7.26
2022-11-18T21:32:00.467Z,7.38
2022-11-18T21:34:28.307Z,7.37
2022-11-18T21:36:55.623Z,7.30
2022-11-18T21:39:24.895Z,7.15
2022-11-18T21:41:56.218Z,7.03
2022-11-18T21:44:25.701Z,6.91
2022-11-18T21:46:52.987Z,6.90
2022-11-18T21:49:20.469Z,6.90
2022-11-18T21:51:47.839Z,6.79
2022-11-18T21:54:15.911Z,6.76
2022-11-18T21:56:43.391Z,6.73
2022-11-18T21:59:10.538Z,6.63
2022-11-18T22:01:37.735Z,6.58
2022-11-18T22:04:05.961Z,6.51
2022-11-18T22:06:34.527Z,6.44
2022-11-18T22:09:04.000Z,6.42
2022-11-18T22:11:31.569Z,6.35
2022-11-18T22:13:58.949Z,6.33
2022-11-18T22:16:26.978Z,6.24
2022-11-18T22:19:01.375Z,6.29
2022-11-18T22:21:32.322Z,6.24
2022-11-18T22:24:01.186Z,6.19
2022-11-18T22:26:29.402Z,6.20
2022-11-18T22:28:58.246Z,6.17
2022-11-18T22:31:28.424Z,6.17
2022-11-18T22:33:57.333Z,6.19
2022-11-18T22:36:27.398Z,6.22
2022-11-18T22:38:55.955Z,6.27
2022-11-18T22:41:45.403Z,6.37
2022-11-18T22:44:16.514Z,6.62
2022-11-18T22:46:45.683Z,6.64
2022-11-18T22:49:13.694Z,6.68
2022-11-18T22:51:41.447Z,6.77
2022-11-18T22:56:57.275Z,6.65
2022-11-18T22:59:24.978Z,6.65
2022-11-18T23:01:52.804Z,6.66
2022-11-18T23:04:20.487Z,6.73
2022-11-18T23:06:49.477Z,6.68
2022-11-18T23:09:17.242Z,6.71
2022-11-18T23:12:03.643Z,6.66
2022-11-18T23:14:31.350Z,6.71
2022-11-18T23:17:00.032Z,6.66
2022-11-18T23:19:27.239Z,6.56
2022-11-18T23:21:54.387Z,6.61
2022-11-18T23:24:21.844Z,6.57
2022-11-18T23:26:49.176Z,6.43
2022-11-18T23:29:17.035Z,6.27
2022-11-18T23:31:45.228Z,6.21
2022-11-18T23:34:15.647Z,6.20
2022-11-18T23:36:43.583Z,6.03
2022-11-18T23:39:11.187Z,5.98
2022-11-18T23:41:39.773Z,6.13
2022-11-18T23:44:07.191Z,6.21
2022-11-18T23:46:34.578Z,6.22
2022-11-18T23:49:01.829Z,6.24
2022-11-18T23:51:28.952Z,6.16
2022-11-18T23:53:57.417Z,6.09
2022-11-18T23:56:27.523Z,5.91
2022-11-18T23:58:56.875Z,5.88
